Time;durP1;ratioP1;P1;durP2;ratioP2;P2;SDS_P1;SDS_P2;PMS_P1;PMS_P2;Temp;Humidity;BMP_temperature;BMP_pressure;BME280_temperature;BME280_humidity;BME280_pressure;Samples;Min_cycle;Max_cycle;Signal;HPM_P1;HPM_P2
2022/03/14 00:02:07;;;;;;;3.33;3.03;;;21.20;39.10;;;;;;4979381;28;20046;-58
2022/03/14 00:04:34;;;;;;;3.30;2.90;;;21.20;39.00;;;;;;4990234;28;20050;-59
2022/03/14 00:07:00;;;;;;;3.03;2.72;;;21.20;39.10;;;;;;4996994;28;20062;-59
2022/03/14 00:09:27;;;;;;;3.15;2.88;;;21.10;39.00;;;;;;4996157;28;20050;-58
2022/03/14 00:11:54;;;;;;;2.83;2.30;;;21.20;39.10;;;;;;4994964;28;20089;-58
2022/03/14 00:14:25;;;;;;;2.53;2.33;;;21.10;39.00;;;;;;4995985;28;20129;-58
2022/03/14 00:16:51;;;;;;;3.45;2.80;;;21.10;39.10;;;;;;4996638;28;20054;-58
2022/03/14 00:19:20;;;;;;;2.60;2.40;;;21.10;39.10;;;;;;4989120;28;20050;-58
2022/03/14 00:21:46;;;;;;;3.05;2.75;;;21.10;39.10;;;;;;4994054;28;20077;-59
2022/03/14 00:24:12;;;;;;;2.40;2.20;;;21.10;39.10;;;;;;4994371;28;20101;-59
2022/03/14 00:26:39;;;;;;;2.78;2.40;;;21.10;39.20;;;;;;4995507;28;20068;-58
2022/03/14 00:29:08;;;;;;;2.33;2.13;;;21.10;39.20;;;;;;4997245;28;20126;-59
2022/03/14 00:31:34;;;;;;;2.10;2.00;;;21.10;39.20;;;;;;5010647;28;20054;-58
2022/03/14 00:34:00;;;;;;;2.38;2.08;;;21.10;39.20;;;;;;4988045;28;20057;-58
2022/03/14 00:36:26;;;;;;;2.30;2.10;;;21.10;39.20;;;;;;4995602;28;20050;-58
2022/03/14 00:38:53;;;;;;;2.55;2.33;;;21.00;39.20;;;;;;4994305;28;20121;-59
2022/03/14 00:41:18;;;;;;;2.50;2.30;;;21.00;39.20;;;;;;4993962;28;20107;-59
2022/03/14 00:43:45;;;;;;;2.38;2.17;;;21.00;39.30;;;;;;4994004;28;20045;-59
2022/03/14 00:46:10;;;;;;;2.90;2.20;;;21.00;39.30;;;;;;5008414;28;20137;-58
2022/03/14 00:48:36;;;;;;;2.28;2.03;;;21.00;39.30;;;;;;4989005;28;20033;-61
2022/03/14 00:51:04;;;;;;;2.10;2.00;;;21.00;39.30;;;;;;4993632;28;20670;-58
2022/03/14 00:53:31;;;;;;;2.25;1.88;;;21.00;39.40;;;;;;4994839;28;20054;-58
2022/03/14 00:55:58;;;;;;;2.35;2.15;;;20.90;39.30;;;;;;4994862;28;20077;-60
2022/03/14 00:58:24;;;;;;;2.20;2.00;;;21.00;39.40;;;;;;4993878;28;20058;-59
2022/03/14 01:00:49;;;;;;;2.40;1.98;;;21.00;39.40;;;;;;4993904;28;20061;-58
2022/03/14 01:03:15;;;;;;;2.03;1.92;;;21.00;39.40;;;;;;4971657;28;20103;-59
2022/03/14 01:05:44;;;;;;;2.60;2.33;;;20.90;39.40;;;;;;4995786;28;20060;-58
2022/03/14 01:08:11;;;;;;;2.55;2.10;;;20.90;39.50;;;;;;4995527;28;20042;-58
2022/03/14 01:10:37;;;;;;;2.05;1.85;;;20.90;39.50;;;;;;4992664;28;20815;-58
2022/03/14 01:13:03;;;;;;;1.92;1.80;;;20.90;39.50;;;;;;5000793;28;20050;-58
2022/03/14 01:15:29;;;;;;;2.05;1.85;;;20.90;39.50;;;;;;4993389;28;20053;-59
2022/03/14 01:17:55;;;;;;;2.55;1.83;;;20.90;39.60;;;;;;4994788;28;20056;-58
2022/03/14 01:20:21;;;;;;;1.90;1.70;;;20.90;39.60;;;;;;4992010;28;20041;-59
2022/03/14 01:22:46;;;;;;;1.92;1.83;;;20.90;39.60;;;;;;4996492;28;20042;-59
2022/03/14 01:25:12;;;;;;;1.80;1.67;;;20.90;39.60;;;;;;4993941;28;20458;-58
2022/03/14 01:27:37;;;;;;;2.00;1.67;;;20.90;39.70;;;;;;4991257;28;20054;-58
2022/03/14 01:30:03;;;;;;;2.20;1.85;;;20.90;39.70;;;;;;4995122;28;20374;-58
2022/03/14 01:32:29;;;;;;;2.03;1.90;;;20.80;39.60;;;;;;4992734;28;20645;-59
2022/03/14 01:34:54;;;;;;;2.20;2.00;;;20.80;39.60;;;;;;4976000;28;20078;-58
2022/03/14 01:37:20;;;;;;;1.95;1.75;;;20.80;39.60;;;;;;4994644;28;20136;-60
2022/03/14 01:39:46;;;;;;;2.38;1.95;;;20.80;39.70;;;;;;4995064;28;20078;-58
2022/03/14 01:42:19;;;;;;;1.67;1.58;;;20.80;39.70;;;;;;4992701;28;20088;-60
2022/03/14 01:44:47;;;;;;;1.70;1.60;;;20.90;39.80;;;;;;4996652;28;20046;-59
2022/03/14 01:47:14;;;;;;;2.17;1.75;;;20.80;39.70;;;;;;4994457;28;20120;-58
2022/03/14 01:49:42;;;;;;;1.70;1.60;;;20.80;39.80;;;;;;4987893;28;20132;-59
2022/03/14 01:52:08;;;;;;;1.80;1.70;;;20.80;39.80;;;;;;4994144;28;20064;-58
2022/03/14 01:54:34;;;;;;;2.00;1.90;;;20.80;39.70;;;;;;4992915;28;20564;-58
2022/03/14 01:57:00;;;;;;;1.60;1.50;;;20.80;39.80;;;;;;4994808;28;20045;-59
2022/03/14 01:59:28;;;;;;;1.52;1.42;;;20.80;39.80;;;;;;4995499;28;20132;-58
2022/03/14 02:01:56;;;;;;;1.83;1.73;;;20.80;39.80;;;;;;4996779;28;20049;-59
2022/03/14 02:04:22;;;;;;;1.50;1.40;;;20.80;39.80;;;;;;4988182;28;20064;-58
2022/03/14 02:06:51;;;;;;;1.65;1.55;;;20.80;39.80;;;;;;4991767;28;20137;-59
2022/03/14 02:09:16;;;;;;;1.70;1.60;;;20.80;39.80;;;;;;4994242;28;20655;-58
2022/03/14 02:11:57;;;;;;;1.60;1.50;;;20.80;39.80;;;;;;4994139;28;20054;-60
2022/03/14 02:14:24;;;;;;;1.60;1.50;;;20.80;39.80;;;;;;4992708;28;20054;-59
2022/03/14 02:16:50;;;;;;;2.00;1.75;;;20.80;39.90;;;;;;4994553;28;20069;-58
2022/03/14 02:19:17;;;;;;;1.83;1.60;;;20.80;39.80;;;;;;4987799;28;20057;-59
2022/03/14 02:21:42;;;;;;;1.60;1.50;;;20.70;39.90;;;;;;4993673;28;20529;-59
2022/03/14 02:24:08;;;;;;;1.52;1.42;;;20.70;39.90;;;;;;4993193;28;20164;-59
2022/03/14 02:26:39;;;;;;;1.50;1.40;;;20.80;39.90;;;;;;4991228;28;20121;-58
2022/03/14 02:29:05;;;;;;;1.40;1.30;;;20.70;40.00;;;;;;4991673;28;20112;-59
2022/03/14 02:31:31;;;;;;;1.60;1.42;;;20.70;39.90;;;;;;4984053;28;20085;-58
2022/03/14 02:33:56;;;;;;;1.60;1.50;;;20.70;39.90;;;;;;4989957;28;20125;-59
2022/03/14 02:36:22;;;;;;;1.50;1.40;;;20.70;40.00;;;;;;4992685;28;20136;-58
2022/03/14 02:38:47;;;;;;;1.30;1.20;;;20.70;40.00;;;;;;4995261;28;20073;-59
2022/03/14 02:41:13;;;;;;;1.38;1.27;;;20.70;40.00;;;;;;4993213;28;20043;-59
2022/03/14 02:43:39;;;;;;;1.55;1.30;;;20.70;40.00;;;;;;4992534;28;20049;-58
2022/03/14 02:46:05;;;;;;;1.60;1.50;;;20.60;39.90;;;;;;4995117;28;20512;-59
2022/03/14 02:48:30;;;;;;;1.40;1.30;;;20.70;40.00;;;;;;4993835;28;20058;-58
2022/03/14 02:50:56;;;;;;;1.60;1.50;;;20.60;40.00;;;;;;4985897;28;20177;-59
2022/03/14 02:53:22;;;;;;;1.80;1.35;;;20.70;40.00;;;;;;4992147;28;20046;-58
2022/03/14 02:55:48;;;;;;;5.93;1.50;;;20.60;40.00;;;;;;4992587;28;20110;-58
2022/03/14 02:58:13;;;;;;;1.30;1.20;;;20.60;40.00;;;;;;4990783;28;20054;-58
2022/03/14 03:00:39;;;;;;;1.60;1.50;;;20.60;40.10;;;;;;4992919;28;20076;-58
2022/03/14 03:03:10;;;;;;;1.40;1.30;;;20.60;40.00;;;;;;4992969;28;20177;-59
2022/03/14 03:05:37;;;;;;;2.13;1.58;;;20.60;40.00;;;;;;4986418;28;20045;-58
2022/03/14 03:08:03;;;;;;;1.50;1.40;;;20.60;40.00;;;;;;4991953;28;20047;-58
2022/03/14 03:10:29;;;;;;;1.40;1.30;;;20.60;40.00;;;;;;4992420;28;20042;-58
2022/03/14 03:12:55;;;;;;;1.65;1.55;;;20.60;40.10;;;;;;4991533;28;20680;-58
2022/03/14 03:15:24;;;;;;;1.40;1.30;;;20.60;40.10;;;;;;4991738;28;20555;-58
2022/03/14 03:17:51;;;;;;;1.40;1.30;;;20.60;40.10;;;;;;4994505;28;20570;-58
2022/03/14 03:20:16;;;;;;;1.40;1.30;;;20.60;40.10;;;;;;4992156;28;20046;-58
2022/03/14 03:22:42;;;;;;;2.20;1.40;;;20.60;40.10;;;;;;4993420;28;20501;-58
2022/03/14 03:25:08;;;;;;;1.40;1.30;;;20.60;40.10;;;;;;4998087;28;20052;-58
2022/03/14 03:27:34;;;;;;;1.52;1.30;;;20.50;40.10;;;;;;4996708;28;20042;-59
2022/03/14 03:30:00;;;;;;;1.50;1.40;;;20.50;40.10;;;;;;4995633;28;20049;-58
2022/03/14 03:32:26;;;;;;;1.30;1.17;;;20.60;40.20;;;;;;4995617;28;20057;-58
2022/03/14 03:34:52;;;;;;;1.08;1.05;;;20.60;40.20;;;;;;4991690;28;20049;-58
2022/03/14 03:37:18;;;;;;;1.45;1.05;;;20.50;40.10;;;;;;4994420;28;20081;-58
2022/03/14 03:39:44;;;;;;;1.30;1.20;;;20.50;40.20;;;;;;4997434;28;20050;-58
2022/03/14 03:42:10;;;;;;;1.20;1.20;;;20.50;40.10;;;;;;4998271;28;20049;-58
2022/03/14 03:44:35;;;;;;;1.15;1.10;;;20.60;40.20;;;;;;4994526;28;20049;-58
2022/03/14 03:47:02;;;;;;;1.20;1.10;;;20.50;40.20;;;;;;4995315;28;20058;-58
2022/03/14 03:49:28;;;;;;;1.30;1.20;;;20.50;40.20;;;;;;4996075;28;20851;-58
2022/03/14 03:51:54;;;;;;;1.08;1.08;;;20.50;40.20;;;;;;4990333;28;20068;-58
2022/03/14 03:54:21;;;;;;;1.20;1.10;;;20.50;40.20;;;;;;4994700;28;20054;-59
2022/03/14 03:56:47;;;;;;;1.27;1.17;;;20.50;40.20;;;;;;4996265;28;20397;-57
2022/03/14 03:59:13;;;;;;;1.45;1.30;;;20.50;40.20;;;;;;4994470;28;20057;-58
2022/03/14 04:01:38;;;;;;;1.10;1.00;;;20.50;40.20;;;;;;4996457;28;20969;-58
2022/03/14 04:04:04;;;;;;;0.82;0.82;;;20.50;40.20;;;;;;4995255;28;20050;-59
2022/03/14 04:06:30;;;;;;;1.10;1.00;;;20.50;40.30;;;;;;4991523;28;20141;-59
2022/03/14 04:09:00;;;;;;;1.30;0.98;;;20.50;40.20;;;;;;5002534;28;20050;-58
2022/03/14 04:11:26;;;;;;;1.40;1.30;;;20.50;40.20;;;;;;4996479;28;20065;-59
2022/03/14 04:13:54;;;;;;;0.95;0.93;;;20.50;40.20;;;;;;4978510;28;20050;-58
2022/03/14 04:16:22;;;;;;;1.20;1.10;;;20.50;40.30;;;;;;4997622;28;20103;-58
2022/03/14 04:18:47;;;;;;;1.20;1.10;;;20.50;40.30;;;;;;4998908;28;20085;-58
2022/03/14 04:21:15;;;;;;;1.23;1.13;;;20.50;40.30;;;;;;4989043;28;20112;-59
2022/03/14 04:23:41;;;;;;;1.00;1.00;;;20.40;40.20;;;;;;4995783;28;20121;-59
2022/03/14 04:26:07;;;;;;;1.20;1.10;;;20.50;40.30;;;;;;4992378;28;20117;-58
2022/03/14 04:28:36;;;;;;;1.08;0.98;;;20.50;40.30;;;;;;4995413;28;20408;-59
2022/03/14 04:31:02;;;;;;;1.25;1.10;;;20.40;40.30;;;;;;4997720;28;20122;-59
2022/03/14 04:33:28;;;;;;;1.10;1.00;;;20.40;40.30;;;;;;4996510;28;20081;-57
2022/03/14 04:35:53;;;;;;;1.20;1.10;;;20.40;41.00;;;;;;4987302;28;20901;-59
2022/03/14 04:38:19;;;;;;;1.08;1.05;;;20.40;40.30;;;;;;4998540;28;20050;-58
2022/03/14 04:40:45;;;;;;;1.17;1.08;;;20.40;40.30;;;;;;4994680;28;20038;-59
2022/03/14 04:43:11;;;;;;;1.27;1.17;;;20.40;40.30;;;;;;4994339;28;20061;-59
2022/03/14 04:45:38;;;;;;;1.00;1.00;;;20.40;40.30;;;;;;4993506;28;20048;-59
2022/03/14 04:48:06;;;;;;;1.08;1.00;;;20.40;40.40;;;;;;4995617;28;20061;-60
2022/03/14 04:50:32;;;;;;;0.90;0.90;;;20.40;40.40;;;;;;4970963;28;20116;-58
2022/03/14 04:52:58;;;;;;;0.95;0.93;;;20.40;40.40;;;;;;4994476;28;20085;-58
2022/03/14 04:55:24;;;;;;;1.65;1.20;;;20.40;40.50;;;;;;4994197;28;20570;-59
2022/03/14 04:57:50;;;;;;;1.00;1.00;;;20.40;40.40;;;;;;4994089;28;20049;-58
2022/03/14 05:00:17;;;;;;;1.17;1.10;;;20.40;40.40;;;;;;4977843;28;20054;-60
2022/03/14 05:02:43;;;;;;;1.08;0.98;;;20.40;40.50;;;;;;4993755;28;20125;-58
2022/03/14 05:05:13;;;;;;;1.10;1.05;;;20.40;40.50;;;;;;4994529;28;20072;-58
2022/03/14 05:07:40;;;;;;;1.15;1.10;;;20.40;40.50;;;;;;4989618;28;20057;-58
2022/03/14 05:10:06;;;;;;;1.10;1.00;;;20.40;41.30;;;;;;4996369;28;20091;-58
2022/03/14 05:12:32;;;;;;;1.30;1.20;;;20.40;40.60;;;;;;4994856;28;20050;-58
2022/03/14 05:14:58;;;;;;;1.00;0.90;;;20.40;40.50;;;;;;4995066;28;20057;-58
2022/03/14 05:17:24;;;;;;;0.88;0.88;;;20.40;40.60;;;;;;4993783;28;20054;-59
2022/03/14 05:19:50;;;;;;;1.10;1.00;;;20.40;40.60;;;;;;4992982;28;20058;-59
2022/03/14 05:22:17;;;;;;;0.80;0.80;;;20.30;40.60;;;;;;4988064;28;20417;-58
2022/03/14 05:24:42;;;;;;;1.38;1.08;;;20.30;40.60;;;;;;4997383;28;20050;-59
2022/03/14 05:27:08;;;;;;;1.20;1.10;;;20.40;40.70;;;;;;4991448;28;20183;-58
2022/03/14 05:29:34;;;;;;;1.25;1.15;;;20.30;40.70;;;;;;4994138;28;20042;-58
2022/03/14 05:31:59;;;;;;;1.17;1.08;;;20.40;40.80;;;;;;4993916;28;20049;-59
2022/03/14 05:34:25;;;;;;;0.70;0.70;;;20.30;40.70;;;;;;4995268;28;20054;-58
2022/03/14 05:36:51;;;;;;;0.70;0.70;;;20.40;40.70;;;;;;4989491;28;20054;-58
2022/03/14 05:39:16;;;;;;;0.95;0.90;;;20.40;40.70;;;;;;4994927;28;20066;-57
2022/03/14 05:41:42;;;;;;;0.75;0.75;;;20.30;40.70;;;;;;4979184;28;20091;-58
2022/03/14 05:44:08;;;;;;;3.28;0.90;;;20.30;40.80;;;;;;4994654;28;20099;-58
2022/03/14 05:46:34;;;;;;;3.03;1.02;;;20.30;40.90;;;;;;4994908;28;20160;-58
2022/03/14 05:49:00;;;;;;;6.95;1.23;;;20.30;41.10;;;;;;4991670;28;20121;-58
2022/03/14 05:51:26;;;;;;;1.38;0.82;;;20.30;41.10;;;;;;4986091;28;20147;-57
2022/03/14 05:53:51;;;;;;;2.78;0.90;;;20.30;41.10;;;;;;4992892;28;20056;-58
2022/03/14 05:56:17;;;;;;;1.95;0.98;;;20.30;41.10;;;;;;5001741;28;20049;-58
2022/03/14 05:58:43;;;;;;;1.10;0.90;;;20.30;41.20;;;;;;4991365;28;20161;-58
2022/03/14 06:01:09;;;;;;;1.02;1.00;;;20.30;41.10;;;;;;4994611;28;20042;-58
2022/03/14 06:03:35;;;;;;;1.88;0.85;;;20.30;41.10;;;;;;4993466;28;20280;-57
2022/03/14 06:06:02;;;;;;;1.33;0.95;;;20.30;41.20;;;;;;4990553;28;20835;-58
2022/03/14 06:08:27;;;;;;;1.33;0.90;;;20.30;41.20;;;;;;4990728;28;20050;-58
2022/03/14 06:10:54;;;;;;;1.15;1.10;;;20.30;41.30;;;;;;4994155;28;20197;-58
2022/03/14 06:13:19;;;;;;;1.58;1.10;;;20.30;41.40;;;;;;4993702;28;20065;-58
2022/03/14 06:15:47;;;;;;;1.67;1.00;;;20.30;41.40;;;;;;4993570;28;20054;-58
2022/03/14 06:18:13;;;;;;;0.88;0.80;;;20.30;41.50;;;;;;4994195;28;20592;-57
2022/03/14 06:20:39;;;;;;;0.90;0.90;;;20.30;41.40;;;;;;4995855;28;20041;-57
2022/03/14 06:23:04;;;;;;;1.52;0.98;;;20.30;41.50;;;;;;4991159;28;20532;-59
2022/03/14 06:25:30;;;;;;;0.93;0.93;;;20.30;41.50;;;;;;4994072;28;20074;-58
2022/03/14 06:27:56;;;;;;;1.10;1.00;;;20.30;41.60;;;;;;4994614;28;20053;-58
2022/03/14 06:30:21;;;;;;;1.08;0.95;;;20.30;41.60;;;;;;4993120;28;20050;-58
2022/03/14 06:32:48;;;;;;;1.30;1.00;;;20.30;41.60;;;;;;4991735;28;20057;-57
2022/03/14 06:35:16;;;;;;;1.60;1.17;;;20.30;41.70;;;;;;4993854;28;20064;-57
2022/03/14 06:37:45;;;;;;;0.80;0.80;;;20.30;41.70;;;;;;4990371;28;20058;-57
2022/03/14 06:40:12;;;;;;;0.75;0.75;;;20.30;41.70;;;;;;4993813;28;20100;-62
2022/03/14 06:42:39;;;;;;;1.23;1.00;;;20.30;41.70;;;;;;4993068;28;20552;-57
2022/03/14 06:45:05;;;;;;;0.98;0.88;;;20.30;41.80;;;;;;4992509;28;20196;-58
2022/03/14 06:47:32;;;;;;;1.00;0.93;;;20.30;41.90;;;;;;4993716;28;20480;-58
2022/03/14 06:49:58;;;;;;;1.52;0.90;;;20.30;41.90;;;;;;4993518;28;20543;-57
2022/03/14 06:52:23;;;;;;;1.00;1.00;;;20.30;41.90;;;;;;4991483;28;20045;-58
2022/03/14 06:54:49;;;;;;;1.05;0.95;;;20.30;41.90;;;;;;4997104;28;20059;-58
2022/03/14 06:57:15;;;;;;;1.05;0.95;;;20.30;41.90;;;;;;4999490;28;20050;-58
2022/03/14 06:59:40;;;;;;;0.80;0.80;;;20.20;41.80;;;;;;4994122;28;20155;-58
2022/03/14 07:02:07;;;;;;;1.67;1.00;;;20.30;41.90;;;;;;4996906;28;20057;-58
2022/03/14 07:04:34;;;;;;;1.65;1.00;;;20.30;41.80;;;;;;4998218;28;20046;-57
2022/03/14 07:07:02;;;;;;;1.08;1.00;;;20.30;41.90;;;;;;4990749;28;20222;-58
2022/03/14 07:09:28;;;;;;;2.55;0.93;;;20.30;41.80;;;;;;4990237;28;20524;-58
2022/03/14 07:11:53;;;;;;;2.30;1.05;;;20.20;41.70;;;;;;4993017;28;20050;-58
2022/03/14 07:14:20;;;;;;;2.17;1.17;;;20.20;41.80;;;;;;4994863;28;20533;-58
2022/03/14 07:16:46;;;;;;;6.03;1.20;;;20.20;41.80;;;;;;4994543;28;20030;-58
2022/03/14 07:19:11;;;;;;;3.33;1.38;;;20.20;41.90;;;;;;4997740;28;20078;-58
2022/03/14 07:21:38;;;;;;;3.67;1.27;;;20.20;42.20;;;;;;4997381;28;20133;-58
2022/03/14 07:24:04;;;;;;;3.15;0.93;;;20.20;42.10;;;;;;4997525;28;20050;-58
2022/03/14 07:26:30;;;;;;;1.38;1.27;;;20.20;42.20;;;;;;4994951;28;20207;-58
2022/03/14 07:28:55;;;;;;;1.55;1.15;;;20.20;42.20;;;;;;4996196;28;20600;-58
2022/03/14 07:31:21;;;;;;;3.10;1.40;;;20.20;42.30;;;;;;4993557;28;20639;-58
2022/03/14 07:33:48;;;;;;;1.83;1.10;;;20.20;42.30;;;;;;4996849;28;20060;-58
2022/03/14 07:36:14;;;;;;;2.45;1.00;;;20.20;42.40;;;;;;4996177;28;20421;-58
2022/03/14 07:38:40;;;;;;;1.88;1.00;;;20.20;42.60;;;;;;4997270;28;20078;-58
2022/03/14 07:41:05;;;;;;;3.38;1.25;;;20.20;42.50;;;;;;4994101;28;20150;-58
2022/03/14 07:43:31;;;;;;;2.80;1.10;;;20.20;42.50;;;;;;4996149;28;20117;-58
2022/03/14 07:45:57;;;;;;;1.98;1.10;;;20.20;43.30;;;;;;4997780;28;20049;-58
2022/03/14 07:48:23;;;;;;;2.17;1.30;;;20.20;42.60;;;;;;4996458;28;20656;-59
2022/03/14 07:50:49;;;;;;;4.13;1.45;;;20.20;42.70;;;;;;4995102;28;20053;-58
2022/03/14 07:53:14;;;;;;;2.45;1.33;;;20.20;42.70;;;;;;4995362;28;20068;-59
2022/03/14 07:55:40;;;;;;;2.13;0.90;;;20.20;42.80;;;;;;4993678;28;20048;-59
2022/03/14 07:58:06;;;;;;;2.63;1.40;;;20.20;42.80;;;;;;4992096;28;20478;-58
2022/03/14 08:00:31;;;;;;;3.22;1.20;;;20.20;42.90;;;;;;4993932;28;20101;-59
2022/03/14 08:02:57;;;;;;;2.10;1.20;;;20.10;43.20;;;;;;4994461;28;20140;-59
2022/03/14 08:05:24;;;;;;;2.50;1.27;;;20.20;43.40;;;;;;4994882;28;20045;-57
2022/03/14 08:07:50;;;;;;;1.42;1.33;;;20.20;43.40;;;;;;4993481;28;20047;-58
2022/03/14 08:10:17;;;;;;;1.35;1.02;;;20.20;43.50;;;;;;4992992;28;20391;-58
2022/03/14 08:12:53;;;;;;;1.30;1.20;;;20.20;43.50;;;;;;4995521;28;20096;-58
2022/03/14 08:15:23;;;;;;;2.72;1.50;;;20.10;43.40;;;;;;4994518;28;20068;-57
2022/03/14 08:17:49;;;;;;;2.95;1.48;;;20.10;43.60;;;;;;4993706;28;20482;-58
2022/03/14 08:20:16;;;;;;;5.10;2.03;;;20.10;43.70;;;;;;4992476;28;20499;-59
2022/03/14 08:22:42;;;;;;;2.63;1.83;;;20.10;43.90;;;;;;4997775;28;20157;-59
2022/03/14 08:25:08;;;;;;;3.28;1.80;;;20.10;43.90;;;;;;4996676;28;20033;-58
2022/03/14 08:27:34;;;;;;;3.55;2.20;;;20.10;44.00;;;;;;4997326;28;20046;-58
2022/03/14 08:30:00;;;;;;;4.40;2.05;;;20.10;44.30;;;;;;4986553;28;20069;-58
2022/03/14 08:32:25;;;;;;;3.83;2.35;;;20.00;44.30;;;;;;4996709;28;20042;-58
2022/03/14 08:34:56;;;;;;;3.28;1.83;;;20.10;44.30;;;;;;4995023;28;20046;-59
2022/03/14 08:37:22;;;;;;;4.22;2.05;;;20.10;44.30;;;;;;4985114;28;20429;-59
2022/03/14 08:39:48;;;;;;;2.30;2.20;;;20.10;44.20;;;;;;4993773;28;20052;-57
2022/03/14 08:42:14;;;;;;;5.68;2.20;;;20.10;44.40;;;;;;4993482;28;20048;-58
2022/03/14 08:44:40;;;;;;;1.73;1.63;;;20.10;44.40;;;;;;4995700;28;20077;-58
2022/03/14 08:47:06;;;;;;;2.40;2.20;;;20.10;44.50;;;;;;4995913;28;20081;-58
2022/03/14 08:49:32;;;;;;;2.30;2.10;;;20.10;44.60;;;;;;4994862;28;20477;-58
2022/03/14 08:51:58;;;;;;;6.15;2.63;;;20.10;44.60;;;;;;5000599;28;20425;-58
2022/03/14 08:54:24;;;;;;;2.63;2.42;;;20.10;45.00;;;;;;4995427;28;20041;-58
2022/03/14 08:56:50;;;;;;;4.10;2.25;;;20.10;44.90;;;;;;4995009;28;20516;-58
2022/03/14 08:59:15;;;;;;;2.10;1.95;;;20.10;44.80;;;;;;4991575;28;20108;-59
2022/03/14 09:01:41;;;;;;;3.25;2.33;;;20.10;44.90;;;;;;4994457;28;20046;-59
2022/03/14 09:04:07;;;;;;;4.03;2.30;;;20.10;44.90;;;;;;4993772;28;20136;-59
2022/03/14 09:06:35;;;;;;;3.47;2.08;;;20.10;44.60;;;;;;4992734;28;20138;-58
2022/03/14 09:09:05;;;;;;;2.17;1.80;;;20.10;44.60;;;;;;4993074;28;20030;-59
2022/03/14 09:11:30;;;;;;;1.58;1.48;;;20.10;44.30;;;;;;5000490;28;20042;-59
2022/03/14 09:13:56;;;;;;;2.13;1.92;;;20.10;44.20;;;;;;4994392;28;20045;-58
2022/03/14 09:16:22;;;;;;;1.95;1.80;;;20.10;44.20;;;;;;4992724;28;20054;-59
2022/03/14 09:18:48;;;;;;;1.67;1.48;;;20.20;44.40;;;;;;4992828;28;20046;-59
2022/03/14 09:21:14;;;;;;;1.88;1.67;;;20.20;44.20;;;;;;4991635;28;20108;-58
2022/03/14 09:23:41;;;;;;;2.80;1.60;;;20.20;44.20;;;;;;4991746;28;20085;-58
2022/03/14 09:26:08;;;;;;;2.60;1.55;;;20.20;44.30;;;;;;4993096;28;20050;-59
2022/03/14 09:28:34;;;;;;;3.70;1.95;;;20.20;44.80;;;;;;5009445;28;20050;-58
2022/03/14 09:30:59;;;;;;;1.55;1.45;;;20.20;44.80;;;;;;4992569;28;20040;-58
2022/03/14 09:33:25;;;;;;;2.60;1.60;;;20.20;44.90;;;;;;4983098;28;20049;-58
2022/03/14 09:35:51;;;;;;;2.50;1.50;;;20.20;44.60;;;;;;4995104;28;20071;-58
2022/03/14 09:38:17;;;;;;;2.00;1.40;;;20.20;44.50;;;;;;4993711;28;20058;-59
2022/03/14 09:40:45;;;;;;;2.45;1.40;;;20.20;44.70;;;;;;4992769;28;20141;-58
2022/03/14 09:43:11;;;;;;;2.08;1.27;;;20.20;44.50;;;;;;4994483;28;20050;-59
2022/03/14 09:45:38;;;;;;;2.83;1.65;;;20.20;44.60;;;;;;4995244;28;20054;-58
2022/03/14 09:48:05;;;;;;;4.00;1.80;;;20.20;44.70;;;;;;4992353;28;20061;-58
2022/03/14 09:50:39;;;;;;;4.80;1.70;;;20.20;44.80;;;;;;4990456;28;20103;-59
2022/03/14 09:53:13;;;;;;;5.97;1.85;;;20.30;44.60;;;;;;4992896;28;20430;-59
2022/03/14 09:55:42;;;;;;;3.30;1.73;;;20.30;44.60;;;;;;4993418;28;20050;-58
2022/03/14 09:58:13;;;;;;;3.83;1.48;;;20.30;44.70;;;;;;5000887;28;20494;-58
2022/03/14 10:00:40;;;;;;;3.47;1.55;;;20.30;44.70;;;;;;4993242;28;20072;-58
2022/03/14 10:03:06;;;;;;;3.63;1.80;;;20.30;44.70;;;;;;4993905;28;20045;-59
2022/03/14 10:05:32;;;;;;;2.00;1.17;;;20.30;44.80;;;;;;4996396;28;20052;-59
2022/03/14 10:07:57;;;;;;;3.83;1.48;;;20.30;44.80;;;;;;4994244;28;20042;-58
2022/03/14 10:10:23;;;;;;;2.80;1.42;;;20.30;44.80;;;;;;4993801;28;20038;-59
2022/03/14 10:12:52;;;;;;;3.00;1.25;;;20.30;44.80;;;;;;4980981;28;20041;-58
2022/03/14 10:15:19;;;;;;;3.75;1.30;;;20.30;44.80;;;;;;4994647;28;20053;-58
2022/03/14 10:17:45;;;;;;;2.97;1.50;;;20.30;44.80;;;;;;4991932;28;20082;-59
2022/03/14 10:20:11;;;;;;;2.65;1.40;;;20.30;44.70;;;;;;4993543;28;20703;-58
2022/03/14 10:22:39;;;;;;;2.90;1.30;;;20.30;44.80;;;;;;4994098;28;20038;-59
2022/03/14 10:25:10;;;;;;;3.95;1.50;;;20.30;44.90;;;;;;4991728;28;20094;-59
2022/03/14 10:27:38;;;;;;;3.63;1.10;;;20.30;45.10;;;;;;4988841;28;20052;-59
2022/03/14 10:30:06;;;;;;;2.10;1.17;;;20.30;45.00;;;;;;4983631;28;20046;-59
2022/03/14 10:32:34;;;;;;;2.90;1.30;;;20.30;44.90;;;;;;4993687;28;20065;-59
2022/03/14 10:35:05;;;;;;;3.45;1.20;;;20.30;44.90;;;;;;4993690;28;20050;-58
2022/03/14 10:37:31;;;;;;;4.03;1.30;;;20.30;44.90;;;;;;4988173;28;20090;-59
2022/03/14 10:39:59;;;;;;;2.97;1.35;;;20.40;44.70;;;;;;4990631;28;20051;-58
2022/03/14 10:42:25;;;;;;;1.40;0.95;;;20.30;44.60;;;;;;4992105;28;20525;-58
2022/03/14 10:44:53;;;;;;;2.65;1.30;;;20.40;44.60;;;;;;4990540;28;20089;-58
2022/03/14 10:47:19;;;;;;;3.28;1.25;;;20.40;44.60;;;;;;4990674;28;20484;-58
2022/03/14 10:49:45;;;;;;;1.60;1.00;;;20.30;44.50;;;;;;4989347;28;20064;-58
2022/03/14 10:52:14;;;;;;;5.18;1.33;;;20.30;44.50;;;;;;4998525;28;20053;-59
2022/03/14 10:54:41;;;;;;;1.70;1.13;;;20.30;44.60;;;;;;4993786;28;20046;-59
2022/03/14 10:57:16;;;;;;;4.80;1.15;;;20.30;44.70;;;;;;4989565;28;20054;-58
2022/03/14 10:59:49;;;;;;;4.10;1.30;;;20.30;44.60;;;;;;4991851;28;20072;-59
2022/03/14 11:02:22;;;;;;;3.95;1.30;;;20.30;44.60;;;;;;4992937;28;20099;-59
2022/03/14 11:04:55;;;;;;;3.95;1.40;;;20.30;44.60;;;;;;4990316;28;20517;-58
2022/03/14 11:07:25;;;;;;;2.15;1.40;;;20.30;44.70;;;;;;4993732;28;20050;-59
2022/03/14 11:09:53;;;;;;;3.05;1.10;;;20.30;44.70;;;;;;4992748;28;20054;-59
2022/03/14 11:12:24;;;;;;;2.53;1.17;;;20.30;44.70;;;;;;4992226;28;20053;-59
2022/03/14 11:15:04;;;;;;;2.88;1.60;;;20.30;44.70;;;;;;4994242;28;20049;-59
2022/03/14 11:17:32;;;;;;;3.57;1.30;;;20.30;44.80;;;;;;4993641;28;20094;-59
2022/03/14 11:19:58;;;;;;;4.00;1.77;;;20.40;44.80;;;;;;4992056;28;20521;-59
2022/03/14 11:22:27;;;;;;;4.45;1.50;;;20.30;44.70;;;;;;4993820;28;20494;-59
2022/03/14 11:24:55;;;;;;;2.38;1.45;;;20.30;44.70;;;;;;4993503;28;20046;-59
2022/03/14 11:27:22;;;;;;;2.13;1.30;;;20.40;44.70;;;;;;4992157;28;20045;-59
2022/03/14 11:29:49;;;;;;;2.00;1.23;;;20.30;44.70;;;;;;4993653;28;20053;-58
2022/03/14 11:32:17;;;;;;;4.38;1.52;;;20.30;44.70;;;;;;4997489;28;20099;-58
2022/03/14 11:34:45;;;;;;;2.75;1.92;;;20.30;44.70;;;;;;4992199;28;20107;-59
2022/03/14 11:37:11;;;;;;;4.88;1.80;;;20.40;44.70;;;;;;4991039;28;20054;-59
2022/03/14 11:39:37;;;;;;;2.90;1.60;;;20.30;44.60;;;;;;4995891;28;20461;-59
2022/03/14 11:42:03;;;;;;;2.53;1.70;;;20.30;44.50;;;;;;4996327;28;20046;-59
2022/03/14 11:44:29;;;;;;;2.35;1.88;;;20.30;44.50;;;;;;4992768;28;20077;-59
2022/03/14 11:46:57;;;;;;;2.53;1.67;;;20.30;44.50;;;;;;4992465;28;20046;-59
2022/03/14 11:49:32;;;;;;;2.40;1.63;;;20.40;44.60;;;;;;4993114;28;20069;-59
2022/03/14 11:52:08;;;;;;;4.50;1.95;;;20.40;44.60;;;;;;4992544;28;20049;-59
2022/03/14 11:54:44;;;;;;;4.70;2.03;;;20.40;44.60;;;;;;4991733;28;20034;-59
2022/03/14 11:57:10;;;;;;;3.35;1.98;;;20.40;44.60;;;;;;4992088;28;20054;-59
2022/03/14 11:59:37;;;;;;;4.35;2.10;;;20.40;45.30;;;;;;4995064;28;20410;-59
2022/03/14 12:02:05;;;;;;;3.15;1.95;;;20.40;44.60;;;;;;4994358;28;20201;-59
2022/03/14 12:04:38;;;;;;;4.32;2.20;;;20.30;44.50;;;;;;4993866;28;20050;-59
2022/03/14 12:07:14;;;;;;;4.57;2.20;;;20.40;44.60;;;;;;4999075;28;20050;-59
2022/03/14 12:09:45;;;;;;;3.85;2.50;;;20.40;44.60;;;;;;4993617;28;20137;-59
2022/03/14 12:12:17;;;;;;;3.35;2.25;;;20.40;44.50;;;;;;4994453;28;20077;-59
2022/03/14 12:14:47;;;;;;;3.92;2.78;;;20.30;44.50;;;;;;4994826;28;20478;-59
2022/03/14 12:17:13;;;;;;;4.15;2.15;;;20.30;44.50;;;;;;4993529;28;20546;-59
2022/03/14 12:19:41;;;;;;;3.88;2.83;;;20.40;44.60;;;;;;4994988;28;20196;-59
2022/03/14 12:22:10;;;;;;;4.18;2.20;;;20.40;44.50;;;;;;4994716;28;20549;-59
2022/03/14 12:24:36;;;;;;;2.60;2.03;;;20.40;44.50;;;;;;4992849;28;20050;-59
2022/03/14 12:27:13;;;;;;;5.20;2.63;;;20.40;44.50;;;;;;4994972;28;20049;-58
2022/03/14 12:29:42;;;;;;;4.63;2.80;;;20.40;44.40;;;;;;4991724;28;20131;-58
2022/03/14 12:32:32;;;;;;;5.55;2.63;;;20.40;44.40;;;;;;4994588;28;20042;-58
2022/03/14 12:34:59;;;;;;;5.25;2.60;;;20.40;44.30;;;;;;4995625;28;20398;-58
2022/03/14 12:37:47;;;;;;;3.88;2.90;;;20.40;44.30;;;;;;4996049;28;20074;-58
2022/03/14 12:40:21;;;;;;;4.32;2.80;;;20.40;44.20;;;;;;4993400;28;20029;-58
2022/03/14 12:42:50;;;;;;;4.63;2.72;;;20.40;44.20;;;;;;4995237;28;20398;-59
2022/03/14 12:45:38;;;;;;;3.88;2.85;;;20.40;44.10;;;;;;4976438;28;20054;-58
2022/03/14 12:48:22;;;;;;;2.83;2.53;;;20.40;44.10;;;;;;4985863;28;20572;-58